Time;durP1;ratioP1;P1;durP2;ratioP2;P2;SDS_P1;SDS_P2;PMS_P1;PMS_P2;Temp;Humidity;BMP_temperature;BMP_pressure;BME280_temperature;BME280_humidity;BME280_pressure;Samples;Min_cycle;Max_cycle;Signal;HPM_P1;HPM_P2
2022/03/15 00:00:15;;;;;;;;;12.00;11.00;;;;;;;;5072359;27;51014;-62
2022/03/15 00:02:40;;;;;;;;;9.50;8.25;;;;;;;;5071279;28;52852;-61
2022/03/15 00:05:06;;;;;;;;;7.75;7.75;;;;;;;;5063737;27;51049;-62
2022/03/15 00:07:31;;;;;;;;;9.75;9.75;;;;;;;;5067149;27;51882;-61
2022/03/15 00:09:56;;;;;;;;;7.50;5.75;;;;;;;;5069378;27;51064;-60
2022/03/15 00:12:22;;;;;;;;;9.25;8.00;;;;;;;;5066673;27;52219;-60
2022/03/15 00:14:47;;;;;;;;;10.50;8.75;;;;;;;;5070324;28;50835;-62
2022/03/15 00:17:13;;;;;;;;;7.75;6.25;;;;;;;;5068494;27;51590;-59
2022/03/15 00:19:39;;;;;;;;;8.50;5.75;;;;;;;;5067611;27;50977;-60
2022/03/15 00:22:06;;;;;;;;;9.00;8.25;;;;;;;;5066331;27;51896;-59
2022/03/15 00:24:33;;;;;;;;;6.00;5.75;;;;;;;;5069225;27;51164;-61
2022/03/15 00:26:59;;;;;;;;;6.50;6.25;;;;;;;;5066379;28;51193;-59
2022/03/15 00:29:24;;;;;;;;;9.75;9.00;;;;;;;;5070829;27;51147;-61
2022/03/15 00:31:50;;;;;;;;;8.75;8.25;;;;;;;;5071356;27;52194;-60
2022/03/15 00:34:16;;;;;;;;;9.00;8.50;;;;;;;;5070517;27;51016;-60
2022/03/15 00:36:41;;;;;;;;;9.00;8.50;;;;;;;;5072100;27;51758;-60
2022/03/15 00:39:07;;;;;;;;;5.50;5.50;;;;;;;;5070932;27;51488;-60
2022/03/15 00:41:32;;;;;;;;;7.50;6.00;;;;;;;;5066645;27;52247;-60
2022/03/15 00:43:58;;;;;;;;;9.50;7.25;;;;;;;;5070395;27;51045;-60
2022/03/15 00:46:23;;;;;;;;;9.50;9.00;;;;;;;;5072477;28;51418;-59
2022/03/15 00:48:48;;;;;;;;;8.25;7.75;;;;;;;;5072546;28;51376;-59
2022/03/15 00:51:14;;;;;;;;;6.25;5.75;;;;;;;;5070875;27;51181;-59
2022/03/15 00:53:39;;;;;;;;;9.00;6.00;;;;;;;;5069631;28;51256;-60
2022/03/15 00:56:05;;;;;;;;;10.50;8.25;;;;;;;;5056606;27;51251;-62
2022/03/15 00:58:30;;;;;;;;;8.75;6.00;;;;;;;;5067843;27;51157;-61
2022/03/15 01:00:56;;;;;;;;;6.00;6.00;;;;;;;;5071860;27;50993;-61
2022/03/15 01:03:21;;;;;;;;;9.75;5.75;;;;;;;;5071380;27;51109;-61
2022/03/15 01:05:46;;;;;;;;;7.50;7.50;;;;;;;;5069544;27;51186;-60
2022/03/15 01:08:11;;;;;;;;;7.25;7.25;;;;;;;;5074823;27;50912;-61
2022/03/15 01:10:37;;;;;;;;;5.00;5.00;;;;;;;;5074063;28;52735;-60
2022/03/15 01:13:02;;;;;;;;;6.75;6.75;;;;;;;;5072443;27;51149;-59
2022/03/15 01:15:27;;;;;;;;;6.75;6.00;;;;;;;;5064571;27;51176;-60
2022/03/15 01:17:52;;;;;;;;;6.00;5.75;;;;;;;;5074647;28;51175;-60
2022/03/15 01:20:18;;;;;;;;;5.25;5.00;;;;;;;;5072947;28;54040;-61
2022/03/15 01:22:43;;;;;;;;;6.25;6.00;;;;;;;;5073787;28;51339;-60
2022/03/15 01:25:09;;;;;;;;;8.25;6.00;;;;;;;;5073174;28;51125;-59
2022/03/15 01:27:34;;;;;;;;;9.25;5.00;;;;;;;;5073304;27;51393;-59
2022/03/15 01:29:59;;;;;;;;;10.00;9.00;;;;;;;;5073136;28;51918;-59
2022/03/15 01:32:25;;;;;;;;;5.00;5.00;;;;;;;;5065729;27;51057;-60
2022/03/15 01:34:50;;;;;;;;;5.75;5.75;;;;;;;;5073012;27;51178;-59
2022/03/15 01:37:15;;;;;;;;;5.00;5.00;;;;;;;;5073060;27;51406;-59
2022/03/15 01:39:40;;;;;;;;;5.50;5.00;;;;;;;;5072972;28;52038;-59
2022/03/15 01:42:06;;;;;;;;;4.75;4.75;;;;;;;;5073857;27;51110;-60
2022/03/15 01:44:33;;;;;;;;;4.00;4.00;;;;;;;;5071846;28;51083;-60
2022/03/15 01:46:59;;;;;;;;;5.25;5.00;;;;;;;;5075277;28;51035;-60
2022/03/15 01:49:24;;;;;;;;;9.00;7.00;;;;;;;;5069538;27;51116;-60
2022/03/15 01:51:49;;;;;;;;;5.75;4.50;;;;;;;;5075539;27;51143;-59
2022/03/15 01:54:15;;;;;;;;;5.00;5.00;;;;;;;;5074411;27;51143;-59
2022/03/15 01:56:41;;;;;;;;;7.25;7.25;;;;;;;;5073211;27;50893;-60
2022/03/15 01:59:08;;;;;;;;;9.00;7.75;;;;;;;;5066278;27;52729;-59
2022/03/15 02:01:33;;;;;;;;;9.00;7.00;;;;;;;;5065540;27;51200;-60
2022/03/15 02:03:59;;;;;;;;;5.00;4.50;;;;;;;;5072884;27;51016;-60
2022/03/15 02:06:24;;;;;;;;;9.25;6.25;;;;;;;;5069833;27;51287;-60
2022/03/15 02:08:50;;;;;;;;;8.75;6.00;;;;;;;;5072487;27;52020;-60
2022/03/15 02:11:15;;;;;;;;;6.00;6.00;;;;;;;;5073265;28;51138;-60
2022/03/15 02:13:41;;;;;;;;;9.50;8.25;;;;;;;;5072559;28;51273;-60
2022/03/15 02:16:06;;;;;;;;;6.25;6.25;;;;;;;;5074514;27;51092;-60
2022/03/15 02:18:31;;;;;;;;;9.25;8.50;;;;;;;;5072337;28;51080;-60
2022/03/15 02:20:57;;;;;;;;;9.50;9.00;;;;;;;;5073840;27;51094;-60
2022/03/15 02:23:22;;;;;;;;;6.25;5.50;;;;;;;;5069996;27;51092;-59
2022/03/15 02:25:47;;;;;;;;;8.25;8.25;;;;;;;;5072647;27;51265;-60
2022/03/15 02:28:13;;;;;;;;;8.50;6.00;;;;;;;;5074861;27;52452;-60
2022/03/15 02:30:38;;;;;;;;;4.00;3.75;;;;;;;;5073738;27;51367;-60
2022/03/15 02:33:03;;;;;;;;;8.75;8.25;;;;;;;;5070973;27;50912;-59
2022/03/15 02:35:29;;;;;;;;;6.00;5.75;;;;;;;;5074674;27;50902;-60
2022/03/15 02:37:54;;;;;;;;;8.00;8.00;;;;;;;;5079951;27;52174;-60
2022/03/15 02:40:19;;;;;;;;;4.50;4.50;;;;;;;;5065065;27;51307;-60
2022/03/15 02:42:44;;;;;;;;;8.00;6.75;;;;;;;;5072626;27;51164;-60
2022/03/15 02:45:10;;;;;;;;;6.00;6.00;;;;;;;;5072742;27;51016;-60
2022/03/15 02:47:36;;;;;;;;;6.00;5.25;;;;;;;;5068455;28;51919;-60
2022/03/15 02:50:01;;;;;;;;;9.00;8.25;;;;;;;;5063261;27;52742;-60
2022/03/15 02:52:29;;;;;;;;;6.00;5.25;;;;;;;;5063603;28;51219;-60
2022/03/15 02:54:54;;;;;;;;;11.75;8.50;;;;;;;;5064373;27;52073;-60
2022/03/15 02:57:23;;;;;;;;;6.00;6.00;;;;;;;;5073616;27;52190;-60
2022/03/15 02:59:48;;;;;;;;;9.00;8.25;;;;;;;;5072745;28;50979;-60
2022/03/15 03:02:14;;;;;;;;;6.75;6.25;;;;;;;;5071657;27;51293;-60
2022/03/15 03:04:39;;;;;;;;;6.50;6.50;;;;;;;;5071733;28;51359;-60
2022/03/15 03:07:05;;;;;;;;;6.75;6.75;;;;;;;;5073250;27;51925;-60
2022/03/15 03:09:30;;;;;;;;;6.75;6.75;;;;;;;;5071919;28;50956;-60
2022/03/15 03:11:57;;;;;;;;;6.00;6.00;;;;;;;;5068099;28;50998;-60
2022/03/15 03:14:23;;;;;;;;;8.75;6.75;;;;;;;;5070826;28;51321;-60
2022/03/15 03:16:48;;;;;;;;;8.50;6.25;;;;;;;;5072901;28;51182;-60
2022/03/15 03:19:13;;;;;;;;;5.25;5.25;;;;;;;;5071533;28;51202;-60
2022/03/15 03:21:38;;;;;;;;;9.75;9.25;;;;;;;;5073392;28;51243;-60
2022/03/15 03:24:06;;;;;;;;;9.00;8.75;;;;;;;;5071649;28;51148;-61
2022/03/15 03:26:32;;;;;;;;;9.75;9.50;;;;;;;;5072203;27;51850;-60
2022/03/15 03:28:58;;;;;;;;;6.75;6.75;;;;;;;;5070879;28;51060;-60
2022/03/15 03:31:24;;;;;;;;;11.75;10.75;;;;;;;;5073922;28;51231;-60
2022/03/15 03:33:49;;;;;;;;;9.00;9.00;;;;;;;;5073683;27;51210;-60
2022/03/15 03:36:14;;;;;;;;;9.25;9.00;;;;;;;;5082800;27;51039;-60
2022/03/15 03:38:41;;;;;;;;;10.00;10.00;;;;;;;;5071747;28;52686;-60
2022/03/15 03:41:06;;;;;;;;;10.25;9.25;;;;;;;;5067985;27;50945;-60
2022/03/15 03:43:32;;;;;;;;;10.75;10.00;;;;;;;;5070813;28;50923;-60
2022/03/15 03:45:57;;;;;;;;;8.00;8.00;;;;;;;;5071010;27;51934;-60
2022/03/15 03:48:24;;;;;;;;;9.75;9.25;;;;;;;;5073046;27;51016;-61
2022/03/15 03:50:50;;;;;;;;;9.00;8.75;;;;;;;;5070973;27;51239;-60
2022/03/15 03:53:17;;;;;;;;;10.75;10.00;;;;;;;;5072213;27;51304;-60
2022/03/15 03:55:42;;;;;;;;;9.25;9.25;;;;;;;;5070807;27;51080;-61
2022/03/15 03:58:07;;;;;;;;;8.50;8.00;;;;;;;;5070587;27;51131;-61
2022/03/15 04:00:32;;;;;;;;;10.00;9.50;;;;;;;;5061357;27;51072;-61
2022/03/15 04:02:58;;;;;;;;;10.25;9.75;;;;;;;;5062896;27;51303;-61
2022/03/15 04:05:25;;;;;;;;;8.50;8.50;;;;;;;;5068598;28;51285;-60
2022/03/15 04:07:51;;;;;;;;;11.25;11.25;;;;;;;;5071411;27;51277;-60
2022/03/15 04:10:20;;;;;;;;;11.75;10.75;;;;;;;;5071290;27;51383;-61
2022/03/15 04:12:46;;;;;;;;;9.50;9.25;;;;;;;;5071662;27;51287;-60
2022/03/15 04:15:11;;;;;;;;;12.75;11.75;;;;;;;;5072227;28;52245;-61
2022/03/15 04:17:36;;;;;;;;;6.75;5.25;;;;;;;;5068442;27;50979;-61
2022/03/15 04:20:03;;;;;;;;;10.25;10.00;;;;;;;;5062361;27;51377;-61
2022/03/15 04:22:28;;;;;;;;;11.50;11.50;;;;;;;;5072069;27;51156;-61
2022/03/15 04:24:53;;;;;;;;;9.50;9.00;;;;;;;;5068529;28;51991;-61
2022/03/15 04:27:19;;;;;;;;;10.00;10.00;;;;;;;;5069697;27;51062;-61
2022/03/15 04:29:44;;;;;;;;;9.00;8.75;;;;;;;;5071741;28;51214;-61
2022/03/15 04:32:09;;;;;;;;;9.75;9.25;;;;;;;;5065137;27;51225;-61
2022/03/15 04:34:35;;;;;;;;;11.75;11.00;;;;;;;;5068076;28;53261;-61
2022/03/15 04:37:00;;;;;;;;;10.50;10.25;;;;;;;;5065778;27;51330;-61
2022/03/15 04:39:25;;;;;;;;;10.50;10.25;;;;;;;;5064595;28;50937;-61
2022/03/15 04:41:50;;;;;;;;;8.50;8.50;;;;;;;;5071417;27;51364;-61
2022/03/15 04:44:16;;;;;;;;;10.25;9.75;;;;;;;;5071080;27;52147;-65
2022/03/15 04:46:41;;;;;;;;;10.50;9.50;;;;;;;;5069323;27;51151;-60
2022/03/15 04:49:06;;;;;;;;;11.00;10.00;;;;;;;;5070852;27;51070;-60
2022/03/15 04:51:31;;;;;;;;;8.75;8.00;;;;;;;;5071578;27;51390;-59
2022/03/15 04:53:57;;;;;;;;;12.00;10.25;;;;;;;;5065672;28;51831;-60
2022/03/15 04:56:22;;;;;;;;;9.75;8.00;;;;;;;;5068840;27;51151;-59
2022/03/15 04:58:47;;;;;;;;;10.25;9.75;;;;;;;;5071786;28;51150;-60
2022/03/15 05:01:13;;;;;;;;;9.50;9.50;;;;;;;;5071616;27;51033;-61
2022/03/15 05:03:38;;;;;;;;;9.75;9.75;;;;;;;;5070922;27;52136;-60
2022/03/15 05:06:03;;;;;;;;;10.00;9.00;;;;;;;;5059480;27;51308;-60
2022/03/15 05:08:29;;;;;;;;;10.75;10.00;;;;;;;;5062624;27;51175;-60
2022/03/15 05:11:06;;;;;;;;;8.00;8.00;;;;;;;;5060832;27;51186;-60
2022/03/15 05:13:35;;;;;;;;;10.00;9.25;;;;;;;;5061653;27;52304;-60
2022/03/15 05:16:01;;;;;;;;;10.00;9.75;;;;;;;;5059919;27;51033;-60
2022/03/15 05:18:26;;;;;;;;;10.75;10.50;;;;;;;;5067007;28;51019;-61
2022/03/15 05:20:51;;;;;;;;;8.00;8.00;;;;;;;;5071126;28;51366;-61
2022/03/15 05:23:17;;;;;;;;;11.00;11.00;;;;;;;;5072429;28;51859;-61
2022/03/15 05:25:42;;;;;;;;;10.50;9.25;;;;;;;;5073027;28;51018;-61
2022/03/15 05:28:08;;;;;;;;;8.00;7.50;;;;;;;;5069112;27;51178;-61
2022/03/15 05:30:33;;;;;;;;;12.00;10.00;;;;;;;;5066529;27;51061;-60
2022/03/15 05:32:58;;;;;;;;;8.00;8.00;;;;;;;;5067216;27;52077;-60
2022/03/15 05:35:24;;;;;;;;;12.25;11.25;;;;;;;;5071093;27;51079;-61
2022/03/15 05:37:49;;;;;;;;;41.00;34.75;;;;;;;;5081881;27;51134;-60
2022/03/15 05:40:15;;;;;;;;;10.00;10.00;;;;;;;;5069825;27;51574;-61
2022/03/15 05:42:40;;;;;;;;;8.75;8.75;;;;;;;;5070094;27;51337;-61
2022/03/15 05:45:05;;;;;;;;;10.00;10.00;;;;;;;;5066776;27;51126;-61
2022/03/15 05:47:31;;;;;;;;;10.00;10.00;;;;;;;;5071797;28;51192;-61
2022/03/15 05:49:56;;;;;;;;;10.00;9.50;;;;;;;;5070843;28;51019;-61
2022/03/15 05:52:21;;;;;;;;;11.50;10.50;;;;;;;;5069392;27;52067;-61
2022/03/15 05:54:46;;;;;;;;;10.25;10.00;;;;;;;;5074663;27;51132;-60
2022/03/15 05:57:12;;;;;;;;;6.00;5.50;;;;;;;;5074562;27;51071;-60
2022/03/15 05:59:37;;;;;;;;;10.75;9.50;;;;;;;;5071286;28;51437;-60
2022/03/15 06:02:02;;;;;;;;;14.75;11.50;;;;;;;;5069168;27;51029;-60
2022/03/15 06:04:28;;;;;;;;;9.75;9.75;;;;;;;;5072137;27;51230;-60
2022/03/15 06:06:57;;;;;;;;;12.25;12.00;;;;;;;;5062918;27;50965;-59
2022/03/15 06:09:23;;;;;;;;;10.00;9.50;;;;;;;;5071887;27;50891;-61
2022/03/15 06:11:49;;;;;;;;;11.00;11.00;;;;;;;;5073861;27;51429;-60
2022/03/15 06:14:14;;;;;;;;;11.75;10.50;;;;;;;;5074546;27;51087;-60
2022/03/15 06:16:39;;;;;;;;;10.75;10.50;;;;;;;;5074606;28;51159;-60
2022/03/15 06:19:05;;;;;;;;;10.00;9.75;;;;;;;;5071242;27;51126;-60
2022/03/15 06:21:30;;;;;;;;;14.25;12.00;;;;;;;;5073822;27;51133;-60
2022/03/15 06:23:55;;;;;;;;;12.50;12.00;;;;;;;;5074355;27;51079;-60
2022/03/15 06:26:21;;;;;;;;;12.00;12.00;;;;;;;;5074188;28;51279;-60
2022/03/15 06:28:46;;;;;;;;;10.50;10.50;;;;;;;;5074858;27;51109;-61
2022/03/15 06:31:13;;;;;;;;;9.75;9.50;;;;;;;;5073205;27;51758;-60
2022/03/15 06:33:39;;;;;;;;;12.50;12.50;;;;;;;;5066626;27;51216;-60
2022/03/15 06:36:08;;;;;;;;;12.75;12.00;;;;;;;;5071344;27;51767;-60
2022/03/15 06:38:33;;;;;;;;;11.25;11.25;;;;;;;;5073712;27;51469;-60
2022/03/15 06:40:59;;;;;;;;;15.00;13.00;;;;;;;;5069897;27;51136;-60
2022/03/15 06:43:24;;;;;;;;;13.00;13.00;;;;;;;;5070470;27;51006;-60
2022/03/15 06:45:49;;;;;;;;;16.50;16.00;;;;;;;;5072826;27;51144;-61
2022/03/15 06:48:15;;;;;;;;;16.75;15.00;;;;;;;;5069704;27;51332;-60
2022/03/15 06:50:40;;;;;;;;;17.00;17.00;;;;;;;;5070457;27;51784;-59
2022/03/15 06:53:06;;;;;;;;;15.75;15.75;;;;;;;;5073798;27;51092;-59
2022/03/15 06:55:32;;;;;;;;;15.75;15.25;;;;;;;;5073707;28;50936;-60
2022/03/15 06:57:58;;;;;;;;;17.25;16.25;;;;;;;;5066493;27;51061;-59
2022/03/15 07:00:24;;;;;;;;;17.00;16.50;;;;;;;;5071945;27;52921;-59
2022/03/15 07:02:49;;;;;;;;;17.25;17.25;;;;;;;;5073131;27;50959;-60
2022/03/15 07:05:14;;;;;;;;;19.00;17.50;;;;;;;;5072491;27;52424;-60
2022/03/15 07:07:39;;;;;;;;;9.00;9.00;;;;;;;;5065957;28;51397;-60
2022/03/15 07:10:05;;;;;;;;;16.50;16.00;;;;;;;;5070036;28;51512;-60
2022/03/15 07:12:31;;;;;;;;;20.50;18.75;;;;;;;;5072896;27;51193;-59
2022/03/15 07:14:56;;;;;;;;;20.25;17.50;;;;;;;;5072784;28;51183;-59
2022/03/15 07:17:22;;;;;;;;;20.25;18.75;;;;;;;;5072855;27;51351;-60
2022/03/15 07:19:47;;;;;;;;;17.75;16.75;;;;;;;;5072847;27;52218;-60
2022/03/15 07:22:12;;;;;;;;;20.00;19.00;;;;;;;;5072251;28;51355;-61
2022/03/15 07:24:38;;;;;;;;;19.25;18.75;;;;;;;;5073758;28;51451;-60
2022/03/15 07:27:03;;;;;;;;;21.75;20.25;;;;;;;;5068448;28;51231;-60
2022/03/15 07:29:28;;;;;;;;;17.00;17.00;;;;;;;;5080318;27;52042;-60
2022/03/15 07:31:54;;;;;;;;;20.75;20.00;;;;;;;;5072209;27;51017;-61
2022/03/15 07:34:19;;;;;;;;;21.50;19.75;;;;;;;;5074108;28;51067;-61
2022/03/15 07:36:45;;;;;;;;;20.75;20.00;;;;;;;;5079274;27;51024;-61
2022/03/15 07:39:11;;;;;;;;;19.25;18.75;;;;;;;;5073500;27;51057;-61
2022/03/15 07:41:39;;;;;;;;;21.50;20.50;;;;;;;;5071817;28;51051;-59
2022/03/15 07:44:06;;;;;;;;;23.50;23.00;;;;;;;;5073180;27;51094;-60
2022/03/15 07:46:31;;;;;;;;;19.00;19.00;;;;;;;;5073312;28;51312;-60
2022/03/15 07:48:56;;;;;;;;;20.00;17.50;;;;;;;;5073293;28;51846;-60
2022/03/15 07:51:22;;;;;;;;;23.00;20.00;;;;;;;;5073532;28;51140;-60
2022/03/15 07:53:47;;;;;;;;;22.25;22.00;;;;;;;;5073700;28;50957;-60
2022/03/15 07:56:12;;;;;;;;;24.75;22.50;;;;;;;;5073304;27;51364;-60
2022/03/15 07:58:38;;;;;;;;;22.00;22.00;;;;;;;;5071883;28;53245;-60
2022/03/15 08:01:04;;;;;;;;;20.25;19.50;;;;;;;;5073143;28;51047;-60
2022/03/15 08:03:29;;;;;;;;;23.50;21.75;;;;;;;;5073320;28;51008;-61
2022/03/15 08:05:54;;;;;;;;;21.50;20.25;;;;;;;;5071991;28;51381;-61
2022/03/15 08:08:19;;;;;;;;;22.25;20.25;;;;;;;;5073174;28;51948;-60
2022/03/15 08:10:45;;;;;;;;;25.75;25.75;;;;;;;;5072811;28;51058;-60
2022/03/15 08:13:10;;;;;;;;;28.00;26.50;;;;;;;;5073297;28;51402;-60
2022/03/15 08:15:35;;;;;;;;;26.00;24.75;;;;;;;;5072935;28;50957;-60
2022/03/15 08:18:02;;;;;;;;;23.00;21.25;;;;;;;;5072960;28;51020;-61
2022/03/15 08:20:39;;;;;;;;;29.50;27.75;;;;;;;;5072834;28;51013;-61
2022/03/15 08:23:04;;;;;;;;;23.50;22.75;;;;;;;;5073136;28;51048;-61
2022/03/15 08:25:30;;;;;;;;;24.00;22.75;;;;;;;;5072792;28;51224;-61
2022/03/15 08:27:56;;;;;;;;;19.00;17.75;;;;;;;;5072728;28;50908;-60
2022/03/15 08:30:22;;;;;;;;;25.50;23.75;;;;;;;;5072761;27;51014;-60
2022/03/15 08:32:47;;;;;;;;;22.75;22.25;;;;;;;;5073133;28;51230;-61
2022/03/15 08:35:13;;;;;;;;;28.50;25.75;;;;;;;;5073033;27;51010;-61
2022/03/15 08:37:38;;;;;;;;;28.25;26.50;;;;;;;;5072240;28;51120;-61
2022/03/15 08:40:04;;;;;;;;;24.00;22.00;;;;;;;;5072901;28;51038;-60
2022/03/15 08:42:29;;;;;;;;;23.50;21.00;;;;;;;;5072471;28;51056;-61
2022/03/15 08:44:54;;;;;;;;;22.00;21.50;;;;;;;;5073158;28;51268;-60
2022/03/15 08:47:19;;;;;;;;;27.75;26.50;;;;;;;;5072417;28;50945;-60
2022/03/15 08:49:45;;;;;;;;;20.25;19.75;;;;;;;;5071536;28;50980;-60
2022/03/15 08:52:11;;;;;;;;;21.75;21.00;;;;;;;;5073842;28;50981;-61
2022/03/15 08:54:37;;;;;;;;;24.75;23.00;;;;;;;;5074814;27;51240;-61
2022/03/15 08:57:03;;;;;;;;;20.75;20.25;;;;;;;;5071948;28;53579;-61
2022/03/15 08:59:28;;;;;;;;;29.00;26.50;;;;;;;;5074090;28;50941;-61
2022/03/15 09:01:53;;;;;;;;;24.75;23.75;;;;;;;;5073920;28;50904;-61
2022/03/15 09:04:18;;;;;;;;;23.25;21.75;;;;;;;;5073434;28;51222;-60
2022/03/15 09:06:44;;;;;;;;;24.25;24.00;;;;;;;;5070534;28;52001;-61
2022/03/15 09:09:09;;;;;;;;;25.50;24.00;;;;;;;;5072559;28;51219;-61
2022/03/15 09:11:34;;;;;;;;;29.00;27.75;;;;;;;;5072277;27;50938;-60
2022/03/15 09:14:00;;;;;;;;;38.00;33.50;;;;;;;;5070941;28;51337;-61
2022/03/15 09:16:25;;;;;;;;;30.25;29.75;;;;;;;;5072173;28;51899;-60
2022/03/15 09:18:51;;;;;;;;;23.25;22.00;;;;;;;;5072562;28;51075;-60
2022/03/15 09:21:18;;;;;;;;;24.25;23.25;;;;;;;;5072528;28;50914;-61
2022/03/15 09:23:43;;;;;;;;;27.25;26.00;;;;;;;;5072604;28;51083;-61
2022/03/15 09:26:08;;;;;;;;;31.75;27.75;;;;;;;;5071254;28;51775;-61
2022/03/15 09:28:34;;;;;;;;;24.00;23.00;;;;;;;;5075187;28;51100;-61
2022/03/15 09:31:01;;;;;;;;;32.00;30.25;;;;;;;;5075687;28;50900;-61
2022/03/15 09:33:27;;;;;;;;;26.50;25.00;;;;;;;;5074395;28;51269;-61
2022/03/15 09:35:52;;;;;;;;;28.50;27.00;;;;;;;;5075167;28;52140;-61
2022/03/15 09:38:19;;;;;;;;;27.00;25.75;;;;;;;;5075796;27;50950;-61
2022/03/15 09:40:46;;;;;;;;;27.00;23.75;;;;;;;;5075186;28;51050;-62
2022/03/15 09:43:12;;;;;;;;;28.75;27.50;;;;;;;;5075803;27;51239;-61
2022/03/15 09:45:38;;;;;;;;;31.00;28.00;;;;;;;;5075372;28;52042;-61
2022/03/15 09:48:08;;;;;;;;;23.25;23.25;;;;;;;;5075692;28;51066;-61
2022/03/15 09:50:34;;;;;;;;;27.75;26.00;;;;;;;;5075594;28;51064;-61
2022/03/15 09:53:00;;;;;;;;;31.25;28.50;;;;;;;;5075898;28;51041;-61
2022/03/15 09:55:26;;;;;;;;;29.50;26.75;;;;;;;;5074781;28;51959;-60
2022/03/15 09:57:52;;;;;;;;;24.00;23.00;;;;;;;;5075576;28;51038;-61
2022/03/15 10:00:18;;;;;;;;;30.50;26.75;;;;;;;;5075398;28;51255;-61
2022/03/15 10:02:44;;;;;;;;;25.00;25.00;;;;;;;;5075223;28;51223;-61
2022/03/15 10:05:10;;;;;;;;;30.50;26.75;;;;;;;;5075026;28;51824;-61
2022/03/15 10:07:36;;;;;;;;;23.75;23.00;;;;;;;;5075299;28;51015;-61
2022/03/15 10:10:03;;;;;;;;;23.25;21.50;;;;;;;;5073399;28;51204;-61
2022/03/15 10:12:28;;;;;;;;;27.00;25.75;;;;;;;;5075451;28;51289;-61
2022/03/15 10:14:55;;;;;;;;;33.50;27.50;;;;;;;;5075027;28;51814;-61
2022/03/15 10:17:21;;;;;;;;;31.50;30.25;;;;;;;;5073773;28;50941;-60
2022/03/15 10:19:51;;;;;;;;;32.25;29.25;;;;;;;;5074978;28;51055;-60
2022/03/15 10:22:19;;;;;;;;;30.50;26.50;;;;;;;;5074964;28;51420;-61
2022/03/15 10:24:46;;;;;;;;;33.00;30.75;;;;;;;;5074605;28;52077;-61
2022/03/15 10:27:11;;;;;;;;;28.75;28.25;;;;;;;;5074695;28;51050;-61
2022/03/15 10:29:36;;;;;;;;;26.50;23.50;;;;;;;;5074503;28;51291;-61
2022/03/15 10:32:04;;;;;;;;;27.25;26.50;;;;;;;;5073729;28;51259;-65
2022/03/15 10:34:29;;;;;;;;;27.00;25.75;;;;;;;;5074628;28;51680;-61
2022/03/15 10:36:56;;;;;;;;;34.25;32.50;;;;;;;;5075018;28;51041;-61
2022/03/15 10:39:22;;;;;;;;;24.25;23.25;;;;;;;;5074851;27;51029;-62
2022/03/15 10:41:48;;;;;;;;;45.75;40.75;;;;;;;;5075244;28;51085;-61
2022/03/15 10:44:34;;;;;;;;;32.00;31.75;;;;;;;;5075387;27;51033;-61
2022/03/15 10:47:14;;;;;;;;;31.00;27.00;;;;;;;;5074847;27;50858;-61
2022/03/15 10:49:47;;;;;;;;;31.00;30.25;;;;;;;;5075028;28;51112;-61
2022/03/15 10:52:13;;;;;;;;;34.25;32.00;;;;;;;;5073050;28;51189;-61
2022/03/15 10:54:39;;;;;;;;;32.50;31.50;;;;;;;;5072894;28;51776;-62
2022/03/15 10:57:04;;;;;;;;;31.50;30.00;;;;;;;;5073916;27;51224;-61
2022/03/15 10:59:29;;;;;;;;;26.25;24.25;;;;;;;;5074714;28;51095;-61
2022/03/15 11:01:54;;;;;;;;;30.25;27.75;;;;;;;;5074379;28;51171;-61
2022/03/15 11:04:20;;;;;;;;;34.50;32.75;;;;;;;;5072523;28;53332;-61
2022/03/15 11:06:46;;;;;;;;;31.00;27.50;;;;;;;;5073672;27;51097;-62
2022/03/15 11:09:24;;;;;;;;;33.50;29.50;;;;;;;;5074029;28;50956;-62
2022/03/15 11:11:53;;;;;;;;;28.75;26.50;;;;;;;;5072578;28;51207;-63
2022/03/15 11:14:28;;;;;;;;;33.50;31.00;;;;;;;;5073833;28;51886;-60
2022/03/15 11:16:53;;;;;;;;;41.00;35.00;;;;;;;;5074087;28;51075;-61
2022/03/15 11:19:19;;;;;;;;;32.75;32.50;;;;;;;;5074068;28;51078;-61
2022/03/15 11:21:44;;;;;;;;;33.25;31.00;;;;;;;;5074201;28;51008;-61
2022/03/15 11:24:11;;;;;;;;;34.50;30.75;;;;;;;;5073187;28;51891;-60
2022/03/15 11:26:37;;;;;;;;;30.50;28.25;;;;;;;;5073803;28;51066;-62
2022/03/15 11:29:02;;;;;;;;;29.50;27.00;;;;;;;;5073625;28;51294;-61
2022/03/15 11:31:29;;;;;;;;;37.25;34.50;;;;;;;;5072762;28;51179;-61
2022/03/15 11:33:55;;;;;;;;;27.00;26.25;;;;;;;;5073442;28;52302;-61
2022/03/15 11:36:23;;;;;;;;;36.25;33.50;;;;;;;;5073152;28;50867;-61
2022/03/15 11:38:50;;;;;;;;;33.50;32.75;;;;;;;;5073161;27;51083;-61
2022/03/15 11:41:15;;;;;;;;;30.75;29.00;;;;;;;;5073392;28;51246;-61
2022/03/15 11:43:47;;;;;;;;;26.00;25.25;;;;;;;;5071459;27;54097;-61
2022/03/15 11:46:13;;;;;;;;;21.25;19.50;;;;;;;;5073299;28;51059;-61
2022/03/15 11:48:51;;;;;;;;;26.25;25.25;;;;;;;;5073127;28;50985;-60
2022/03/15 11:51:23;;;;;;;;;29.75;27.00;;;;;;;;5072807;28;51053;-60
2022/03/15 11:54:09;;;;;;;;;32.00;31.25;;;;;;;;5072649;28;51013;-61
2022/03/15 11:56:37;;;;;;;;;28.75;25.75;;;;;;;;5072558;27;51039;-61
2022/03/15 11:59:02;;;;;;;;;24.50;23.50;;;;;;;;5073490;28;51211;-61
2022/03/15 12:01:30;;;;;;;;;30.75;29.75;;;;;;;;5073158;28;51295;-61
2022/03/15 12:03:57;;;;;;;;;32.75;29.50;;;;;;;;5058290;28;53831;-60
2022/03/15 12:06:27;;;;;;;;;24.50;22.00;;;;;;;;5072921;28;50944;-62
2022/03/15 12:08:54;;;;;;;;;24.75;24.50;;;;;;;;5071526;28;50984;-62
2022/03/15 12:11:36;;;;;;;;;19.25;18.00;;;;;;;;5071562;28;51006;-61
2022/03/15 12:14:16;;;;;;;;;20.00;19.50;;;;;;;;5072656;27;51353;-61
2022/03/15 12:16:44;;;;;;;;;27.50;24.75;;;;;;;;5072770;28;50903;-61
2022/03/15 12:19:30;;;;;;;;;23.25;20.25;;;;;;;;5073196;28;51096;-62
2022/03/15 12:21:59;;;;;;;;;20.50;20.00;;;;;;;;5074327;28;50987;-61
2022/03/15 12:24:40;;;;;;;;;25.25;23.25;;;;;;;;5073113;28;52078;-62
2022/03/15 12:27:07;;;;;;;;;22.00;20.25;;;;;;;;5073837;28;50943;-62
2022/03/15 12:29:32;;;;;;;;;23.75;23.25;;;;;;;;5073596;28;51044;-61
2022/03/15 12:32:09;;;;;;;;;25.00;23.25;;;;;;;;5073115;28;51183;-62
2022/03/15 12:34:34;;;;;;;;;20.75;19.25;;;;;;;;5072356;28;50922;-61
2022/03/15 12:37:00;;;;;;;;;28.00;23.00;;;;;;;;5072537;28;50918;-61
2022/03/15 12:39:29;;;;;;;;;25.50;23.50;;;;;;;;5072749;28;51072;-61
2022/03/15 12:42:04;;;;;;;;;26.00;24.75;;;;;;;;5072920;28;51106;-62
2022/03/15 12:44:41;;;;;;;;;20.25;18.50;;;;;;;;5072107;27;51226;-62
2022/03/15 12:47:06;;;;;;;;;20.00;17.50;;;;;;;;5072525;28;51182;-61
2022/03/15 12:49:32;;;;;;;;;18.25;16.50;;;;;;;;5072332;28;51032;-61
2022/03/15 12:51:57;;;;;;;;;22.75;22.25;;;;;;;;5072794;28;51141;-61
2022/03/15 12:54:25;;;;;;;;;22.00;21.75;;;;;;;;5069651;28;51456;-62
2022/03/15 12:56:51;;;;;;;;;22.50;22.25;;;;;;;;5071530;28;51080;-61
2022/03/15 12:59:17;;;;;;;;;17.75;17.75;;;;;;;;5072077;28;51176;-62
2022/03/15 13:01:46;;;;;;;;;23.75;22.75;;;;;;;;5071954;28;51252;-62
2022/03/15 13:04:11;;;;;;;;;19.75;18.75;;;;;;;;5071742;28;51083;-62
2022/03/15 13:06:40;;;;;;;;;22.25;20.50;;;;;;;;5064813;27;51127;-62
2022/03/15 13:09:06;;;;;;;;;25.50;22.00;;;;;;;;5071585;28;51286;-62
2022/03/15 13:11:33;;;;;;;;;22.75;22.50;;;;;;;;5071792;28;50857;-62
2022/03/15 13:13:59;;;;;;;;;24.25;23.25;;;;;;;;5071603;28;52086;-60
2022/03/15 13:16:25;;;;;;;;;24.50;22.25;;;;;;;;5072037;28;50911;-61
2022/03/15 13:18:50;;;;;;;;;30.75;29.25;;;;;;;;5072235;28;50975;-61
2022/03/15 13:21:15;;;;;;;;;28.00;26.75;;;;;;;;5072085;28;51031;-62
2022/03/15 13:23:47;;;;;;;;;28.50;28.00;;;;;;;;5070611;28;52342;-60
2022/03/15 13:26:13;;;;;;;;;24.00;22.00;;;;;;;;5071440;27;51087;-61
2022/03/15 13:28:40;;;;;;;;;24.50;23.50;;;;;;;;5072428;28;50995;-62
2022/03/15 13:31:06;;;;;;;;;20.75;18.50;;;;;;;;5071975;28;51361;-61
2022/03/15 13:33:34;;;;;;;;;23.50;20.50;;;;;;;;5071591;28;52331;-61
2022/03/15 13:36:01;;;;;;;;;21.25;19.50;;;;;;;;5071567;28;50937;-61
2022/03/15 13:38:27;;;;;;;;;16.25;15.00;;;;;;;;5071826;28;51020;-61
2022/03/15 13:40:52;;;;;;;;;24.25;21.25;;;;;;;;5071308;28;50918;-61
2022/03/15 13:43:18;;;;;;;;;23.75;23.00;;;;;;;;5071418;28;52348;-62
2022/03/15 13:45:45;;;;;;;;;22.75;22.00;;;;;;;;5071497;28;50994;-61
2022/03/15 13:48:12;;;;;;;;;21.25;19.25;;;;;;;;5071594;28;51068;-61
2022/03/15 13:50:38;;;;;;;;;20.00;19.25;;;;;;;;5071368;28;51232;-60
2022/03/15 13:53:16;;;;;;;;;23.00;22.25;;;;;;;;5071122;28;51176;-60
2022/03/15 13:55:41;;;;;;;;;26.25;24.50;;;;;;;;5070442;28;51006;-62
2022/03/15 13:58:06;;;;;;;;;24.50;24.00;;;;;;;;5071404;28;51083;-61
2022/03/15 14:00:32;;;;;;;;;24.00;21.25;;;;;;;;5071173;28;50849;-62
2022/03/15 14:03:05;;;;;;;;;21.75;21.00;;;;;;;;5071689;28;51830;-61
2022/03/15 14:05:31;;;;;;;;;23.50;22.25;;;;;;;;5071415;28;50901;-62
2022/03/15 14:08:05;;;;;;;;;24.25;23.25;;;;;;;;5072448;28;51028;-62
2022/03/15 14:10:30;;;;;;;;;27.75;26.25;;;;;;;;5072510;28;51023;-61
2022/03/15 14:12:55;;;;;;;;;22.25;20.50;;;;;;;;5073014;28;52079;-62
2022/03/15 14:15:22;;;;;;;;;24.75;24.25;;;;;;;;5077104;28;50965;-62
2022/03/15 14:17:49;;;;;;;;;23.75;22.00;;;;;;;;5075547;28;51343;-61
2022/03/15 14:20:19;;;;;;;;;20.25;20.00;;;;;;;;5075074;28;51287;-62